createdAt,value
2022-10-09T00:01:11.492Z,8.24
2022-10-09T00:03:39.620Z,8.34
2022-10-09T00:06:11.192Z,8.30
2022-10-09T00:08:43.735Z,8.39
2022-10-09T00:11:16.169Z,8.42
2022-10-09T00:13:43.294Z,8.41
2022-10-09T00:16:12.333Z,8.41
2022-10-09T00:18:41.125Z,8.46
2022-10-09T00:21:17.259Z,8.43
2022-10-09T00:23:43.903Z,8.44
2022-10-09T00:26:12.106Z,8.38
2022-10-09T00:28:39.169Z,8.42
2022-10-09T00:31:10.405Z,8.42
2022-10-09T00:33:38.125Z,8.31
2022-10-09T00:36:07.161Z,8.21
2022-10-09T00:38:34.479Z,8.16
2022-10-09T00:41:01.132Z,8.21
2022-10-09T00:44:23.210Z,8.07
2022-10-09T00:46:51.921Z,8.00
2022-10-09T00:49:27.133Z,7.97
2022-10-09T00:51:55.987Z,7.95
2022-10-09T00:54:25.168Z,7.94
2022-10-09T00:56:52.017Z,8.09
2022-10-09T00:59:19.370Z,8.02
2022-10-09T01:01:46.736Z,7.99
2022-10-09T01:04:14.109Z,7.90
2022-10-09T01:07:12.784Z,7.87
2022-10-09T01:09:47.048Z,7.71
2022-10-09T01:12:47.053Z,7.73
2022-10-09T01:15:16.872Z,7.71
2022-10-09T01:18:07.754Z,7.76
2022-10-09T01:20:38.889Z,7.86
2022-10-09T01:23:05.474Z,7.98
2022-10-09T01:25:46.408Z,7.91
2022-10-09T01:28:13.931Z,7.86
2022-10-09T01:30:41.127Z,7.85
2022-10-09T01:33:08.109Z,7.82
2022-10-09T01:35:35.043Z,7.65
2022-10-09T01:38:02.788Z,7.91
2022-10-09T01:40:29.497Z,7.65
2022-10-09T01:42:56.520Z,7.58
2022-10-09T01:45:23.284Z,7.75
2022-10-09T01:47:49.977Z,7.58
2022-10-09T01:50:28.330Z,7.63
2022-10-09T01:53:01.905Z,7.58
2022-10-09T01:55:56.744Z,7.55
2022-10-09T01:58:36.901Z,7.51
2022-10-09T02:01:17.085Z,7.47
2022-10-09T02:03:48.330Z,7.41
2022-10-09T02:06:16.417Z,7.41
2022-10-09T02:08:45.200Z,7.38
2022-10-09T02:11:14.937Z,7.29
2022-10-09T02:13:41.821Z,7.28
2022-10-09T02:16:11.460Z,7.39
2022-10-09T02:18:46.867Z,7.10
2022-10-09T02:21:14.549Z,7.27
2022-10-09T02:23:42.112Z,7.25
2022-10-09T02:26:09.654Z,7.13
2022-10-09T02:28:36.681Z,7.15
2022-10-09T02:31:09.761Z,7.17
2022-10-09T02:33:36.853Z,7.05
2022-10-09T02:36:03.818Z,7.02
2022-10-09T02:38:30.460Z,7.01
2022-10-09T02:40:58.920Z,6.91
2022-10-09T02:43:25.583Z,6.91
2022-10-09T02:45:52.216Z,6.89
2022-10-09T02:48:18.889Z,6.86
2022-10-09T02:50:45.933Z,6.90
2022-10-09T02:53:12.619Z,7.03
2022-10-09T02:55:39.244Z,6.88
2022-10-09T02:58:05.851Z,6.79
2022-10-09T03:00:32.659Z,6.73
2022-10-09T03:02:59.420Z,6.63
2022-10-09T03:05:26.128Z,6.62
2022-10-09T03:07:53.766Z,6.58
2022-10-09T03:10:21.290Z,6.54
2022-10-09T03:12:48.422Z,6.52
2022-10-09T03:15:15.797Z,6.51
2022-10-09T03:17:42.548Z,6.49
2022-10-09T03:20:09.905Z,6.54
2022-10-09T03:22:36.541Z,6.76
2022-10-09T03:25:03.361Z,6.87
2022-10-09T03:27:31.334Z,6.87
2022-10-09T03:29:58.789Z,6.79
2022-10-09T03:32:25.497Z,6.84
2022-10-09T03:34:52.345Z,6.84
2022-10-09T03:37:18.956Z,6.90
2022-10-09T03:39:45.677Z,6.96
2022-10-09T03:42:12.285Z,7.03
2022-10-09T03:44:39.051Z,7.04
2022-10-09T03:47:06.174Z,7.02
2022-10-09T03:49:32.939Z,7.04
2022-10-09T03:51:59.699Z,6.97
2022-10-09T03:54:26.856Z,6.86
2022-10-09T03:56:53.605Z,6.80
2022-10-09T03:59:20.279Z,6.77
2022-10-09T04:01:46.959Z,6.82
2022-10-09T04:04:13.727Z,6.86
2022-10-09T04:06:40.468Z,6.93
2022-10-09T04:09:07.334Z,7.02
2022-10-09T04:11:34.134Z,6.95
2022-10-09T04:14:01.146Z,6.90
2022-10-09T04:16:27.983Z,6.84
2022-10-09T04:18:54.683Z,6.81
2022-10-09T04:21:21.317Z,6.89
2022-10-09T04:23:47.954Z,6.85
2022-10-09T04:26:14.663Z,6.84
2022-10-09T04:28:41.331Z,7.02
2022-10-09T04:31:08.199Z,7.10
2022-10-09T04:33:34.936Z,7.07
2022-10-09T04:36:01.550Z,7.25
2022-10-09T04:38:28.413Z,7.42
2022-10-09T04:40:58.560Z,7.45
2022-10-09T04:43:25.993Z,7.50
2022-10-09T04:46:26.423Z,7.56
2022-10-09T04:48:53.226Z,7.54
2022-10-09T04:51:19.989Z,7.71
2022-10-09T04:53:47.060Z,7.74
2022-10-09T04:56:16.253Z,7.75
2022-10-09T04:58:43.670Z,7.83
2022-10-09T05:01:16.827Z,7.88
2022-10-09T05:03:43.851Z,8.00
2022-10-09T05:06:12.080Z,8.11
2022-10-09T05:08:39.288Z,8.10
2022-10-09T05:11:08.326Z,8.18
2022-10-09T05:13:37.817Z,8.19
2022-10-09T05:16:07.541Z,8.13
2022-10-09T05:18:35.420Z,8.33
2022-10-09T05:21:06.201Z,8.55
2022-10-09T05:23:33.272Z,8.82
2022-10-09T05:26:03.715Z,8.92
2022-10-09T05:28:30.755Z,9.10
2022-10-09T05:31:27.380Z,9.29
2022-10-09T05:33:56.493Z,9.40
2022-10-09T05:36:23.170Z,9.56
2022-10-09T05:38:52.368Z,9.61
2022-10-09T05:41:22.895Z,9.32
2022-10-09T05:43:49.908Z,8.97
2022-10-09T05:46:24.384Z,9.55
2022-10-09T05:48:56.476Z,9.38
2022-10-09T05:51:26.594Z,9.44
2022-10-09T05:53:53.926Z,9.39
2022-10-09T05:56:24.489Z,9.34
2022-10-09T05:58:53.590Z,9.33
2022-10-09T06:01:21.269Z,9.18
2022-10-09T06:03:52.026Z,9.17
2022-10-09T06:06:20.416Z,9.14
2022-10-09T06:08:47.683Z,9.16
2022-10-09T06:11:15.787Z,9.22
2022-10-09T06:13:42.859Z,9.34
2022-10-09T06:16:11.934Z,9.38
2022-10-09T06:18:40.178Z,9.61
2022-10-09T06:21:07.494Z,9.69
2022-10-09T06:23:34.325Z,9.73
2022-10-09T06:26:04.039Z,9.68
2022-10-09T06:28:32.396Z,9.77
2022-10-09T06:31:06.790Z,9.72
2022-10-09T06:33:35.098Z,9.66
2022-10-09T06:36:11.098Z,9.72
2022-10-09T06:38:38.715Z,9.76
2022-10-09T06:41:10.608Z,9.93
2022-10-09T06:43:37.974Z,10.06
2022-10-09T06:48:48.365Z,10.48
2022-10-09T06:51:17.777Z,10.56
2022-10-09T06:53:49.795Z,10.82
2022-10-09T06:56:17.705Z,10.98
2022-10-09T06:58:45.189Z,11.15
2022-10-09T07:01:21.418Z,11.21
2022-10-09T07:03:53.404Z,11.32
2022-10-09T07:06:26.068Z,11.51
2022-10-09T07:08:55.684Z,11.54
2022-10-09T07:11:24.959Z,11.76
2022-10-09T07:13:54.966Z,11.77
2022-10-09T07:16:25.609Z,11.83
2022-10-09T07:18:52.755Z,12.06
2022-10-09T07:21:19.936Z,12.06
2022-10-09T07:23:46.881Z,12.20
2022-10-09T07:26:18.608Z,12.34
2022-10-09T07:28:46.678Z,12.38
2022-10-09T07:31:14.008Z,12.39
2022-10-09T07:33:41.863Z,12.47
2022-10-09T07:36:10.034Z,12.60
2022-10-09T07:38:36.743Z,12.67
2022-10-09T07:41:14.852Z,12.73
2022-10-09T07:43:42.324Z,12.88
2022-10-09T07:46:12.603Z,12.90
2022-10-09T07:48:39.895Z,12.94
2022-10-09T07:51:24.127Z,12.98
2022-10-09T07:53:53.647Z,12.83
2022-10-09T07:56:22.795Z,12.83
2022-10-09T07:58:51.302Z,13.07
2022-10-09T08:01:20.259Z,13.16
2022-10-09T08:03:47.766Z,13.20
2022-10-09T08:06:14.439Z,13.34
2022-10-09T08:08:41.482Z,13.45
2022-10-09T08:11:11.633Z,13.43
2022-10-09T08:13:38.671Z,13.51
2022-10-09T08:16:07.232Z,13.59
2022-10-09T08:18:34.520Z,13.50
2022-10-09T08:21:07.753Z,13.43
2022-10-09T08:23:34.605Z,13.53
2022-10-09T08:26:01.265Z,13.62
2022-10-09T08:28:28.036Z,13.73
2022-10-09T08:30:54.761Z,13.87
2022-10-09T08:33:23.585Z,13.97
2022-10-09T08:35:50.844Z,13.92
2022-10-09T08:38:44.726Z,13.97
2022-10-09T08:41:27.979Z,14.14
2022-10-09T08:44:01.877Z,14.28
2022-10-09T08:46:49.279Z,14.45
2022-10-09T08:49:26.213Z,14.63
2022-10-09T08:51:53.514Z,14.77
2022-10-09T08:54:39.712Z,14.91
2022-10-09T08:57:12.924Z,14.94
2022-10-09T08:59:40.021Z,15.15
2022-10-09T09:02:28.118Z,15.14
2022-10-09T09:05:24.180Z,15.22
2022-10-09T09:07:50.728Z,15.04
2022-10-09T09:10:32.375Z,15.15
2022-10-09T09:13:13.770Z,15.02
2022-10-09T09:15:58.784Z,14.98
2022-10-09T09:18:47.347Z,15.00
2022-10-09T09:21:22.296Z,15.10
2022-10-09T09:23:49.230Z,15.28
2022-10-09T09:26:19.381Z,15.09
2022-10-09T09:28:47.827Z,15.25
2022-10-09T09:31:25.845Z,15.42
2022-10-09T09:34:11.320Z,15.63
2022-10-09T09:36:57.961Z,15.72
2022-10-09T09:42:19.471Z,15.75
2022-10-09T09:45:07.014Z,15.91
2022-10-09T09:47:45.915Z,15.84
2022-10-09T09:50:35.035Z,15.95
2022-10-09T09:53:03.780Z,16.05
2022-10-09T09:55:31.561Z,16.13
2022-10-09T09:58:18.024Z,16.23
2022-10-09T10:00:57.277Z,16.24
2022-10-09T10:03:25.307Z,16.36
2022-10-09T10:05:52.099Z,16.38
2022-10-09T10:08:26.072Z,16.64
2022-10-09T10:10:56.069Z,16.72
2022-10-09T10:13:34.713Z,16.74
2022-10-09T10:16:02.030Z,16.61
2022-10-09T10:18:32.477Z,16.84
2022-10-09T10:21:04.889Z,17.21
2022-10-09T10:23:39.194Z,17.06
2022-10-09T10:26:23.509Z,17.18
2022-10-09T10:28:54.087Z,17.00
2022-10-09T10:31:59.321Z,17.02
2022-10-09T10:34:43.751Z,16.88
2022-10-09T10:37:38.744Z,16.66
2022-10-09T10:40:05.528Z,16.68
2022-10-09T10:42:43.668Z,16.58
2022-10-09T10:45:10.418Z,16.38
2022-10-09T10:47:41.576Z,16.36
2022-10-09T10:50:14.100Z,16.32
2022-10-09T10:52:40.720Z,16.01
2022-10-09T10:55:19.647Z,15.90
2022-10-09T10:57:56.052Z,16.15
2022-10-09T11:00:22.955Z,16.11
2022-10-09T11:03:08.603Z,16.17
2022-10-09T11:05:41.229Z,16.38
2022-10-09T11:08:55.787Z,16.35
2022-10-09T11:11:26.969Z,16.46
2022-10-09T11:14:05.029Z,16.52
2022-10-09T11:17:05.422Z,16.79
2022-10-09T11:20:10.008Z,16.66
2022-10-09T11:22:49.840Z,16.65
2022-10-09T11:25:32.888Z,16.46
2022-10-09T11:28:45.419Z,16.39
2022-10-09T11:31:20.504Z,16.53
2022-10-09T11:33:49.946Z,17.03
2022-10-09T11:36:27.863Z,17.15
2022-10-09T11:39:14.694Z,16.89
2022-10-09T11:41:43.172Z,17.04
2022-10-09T11:45:01.531Z,16.77
2022-10-09T11:47:40.111Z,16.81
2022-10-09T11:50:34.806Z,16.66
2022-10-09T11:53:09.485Z,16.33
2022-10-09T11:55:36.418Z,16.06
2022-10-09T11:58:15.433Z,15.92
2022-10-09T12:00:42.999Z,15.86
2022-10-09T12:03:22.809Z,15.20
2022-10-09T12:06:08.133Z,15.34
2022-10-09T12:08:35.692Z,15.18
2022-10-09T12:11:18.972Z,14.91
2022-10-09T12:13:48.184Z,14.87
2022-10-09T12:16:35.383Z,14.44
2022-10-09T12:19:21.268Z,14.36
2022-10-09T12:21:52.207Z,14.27
2022-10-09T12:24:27.373Z,14.02
2022-10-09T12:26:56.839Z,13.92
2022-10-09T12:29:52.906Z,13.69
2022-10-09T12:32:37.185Z,13.52
2022-10-09T12:35:30.360Z,13.35
2022-10-09T12:37:57.479Z,13.14
2022-10-09T12:40:32.122Z,13.05
2022-10-09T12:43:17.495Z,12.86
2022-10-09T12:45:46.203Z,12.74
2022-10-09T12:48:13.598Z,12.78
2022-10-09T12:50:40.484Z,12.57
2022-10-09T12:53:13.560Z,12.50
2022-10-09T12:56:10.642Z,12.39
2022-10-09T12:58:39.497Z,12.32
2022-10-09T13:01:11.077Z,12.24
2022-10-09T13:03:43.687Z,12.10
2022-10-09T13:06:19.414Z,12.01
2022-10-09T13:08:46.639Z,11.88
2022-10-09T13:11:19.073Z,11.90
2022-10-09T13:13:52.115Z,11.79
2022-10-09T13:16:18.825Z,11.76
2022-10-09T13:19:02.460Z,11.60
2022-10-09T13:21:34.343Z,11.53
2022-10-09T13:24:13.379Z,11.50
2022-10-09T13:26:43.633Z,11.49
2022-10-09T13:29:12.211Z,11.25
2022-10-09T13:31:46.211Z,11.38
2022-10-09T13:34:14.239Z,11.42
2022-10-09T13:36:41.602Z,11.32
2022-10-09T13:39:14.034Z,11.38
2022-10-09T13:41:41.191Z,11.41
2022-10-09T13:44:08.423Z,11.35
2022-10-09T13:46:35.957Z,11.45
2022-10-09T13:49:02.885Z,11.35
2022-10-09T13:51:29.618Z,11.43
2022-10-09T13:53:56.937Z,11.48
2022-10-09T13:56:24.246Z,11.57
2022-10-09T13:58:53.921Z,11.50
2022-10-09T14:01:20.733Z,11.57
2022-10-09T14:03:48.076Z,11.61
2022-10-09T14:06:14.733Z,11.46
2022-10-09T14:08:41.440Z,11.63
2022-10-09T14:11:08.336Z,11.65
2022-10-09T14:13:34.996Z,11.66
2022-10-09T14:16:06.716Z,11.60
2022-10-09T14:18:34.007Z,11.65
2022-10-09T14:21:00.811Z,11.71
2022-10-09T14:23:27.975Z,11.70
2022-10-09T14:26:04.295Z,11.62
2022-10-09T14:28:31.749Z,11.71
2022-10-09T14:30:58.626Z,11.70
2022-10-09T14:33:25.575Z,11.68
2022-10-09T14:35:53.217Z,11.64
2022-10-09T14:38:20.175Z,11.63
2022-10-09T14:40:47.136Z,11.65
2022-10-09T14:43:14.211Z,11.63
2022-10-09T14:45:40.974Z,11.59
2022-10-09T14:48:07.667Z,11.58
2022-10-09T14:50:35.681Z,11.64
2022-10-09T14:53:02.360Z,11.65
2022-10-09T14:55:28.978Z,11.65
2022-10-09T14:57:55.646Z,11.64
2022-10-09T15:00:22.315Z,11.54
2022-10-09T15:02:48.954Z,11.61
2022-10-09T15:05:15.769Z,11.48
2022-10-09T15:07:42.453Z,11.61
2022-10-09T15:10:09.454Z,11.59
2022-10-09T15:12:36.224Z,11.61
2022-10-09T15:15:02.886Z,11.62
2022-10-09T15:17:29.534Z,11.64
2022-10-09T15:19:56.165Z,11.63
2022-10-09T15:22:22.769Z,11.60
2022-10-09T15:24:58.536Z,11.59
2022-10-09T15:27:25.129Z,11.56
2022-10-09T15:29:51.862Z,11.51
2022-10-09T15:32:18.553Z,11.51
2022-10-09T15:34:45.183Z,11.42
2022-10-09T15:37:11.827Z,11.53
2022-10-09T15:39:40.902Z,11.47
2022-10-09T15:42:07.637Z,11.51
2022-10-09T15:44:34.309Z,11.49
2022-10-09T15:47:01.018Z,11.51
2022-10-09T15:49:27.770Z,11.52
2022-10-09T15:51:54.492Z,11.53
2022-10-09T15:54:21.184Z,11.37
2022-10-09T15:56:47.855Z,11.42
2022-10-09T15:59:17.020Z,11.53
2022-10-09T16:01:43.985Z,11.47
2022-10-09T16:04:11.020Z,11.53
2022-10-09T16:06:38.252Z,11.36
2022-10-09T16:09:05.529Z,11.38
2022-10-09T16:11:32.190Z,11.48
2022-10-09T16:13:59.405Z,11.37
2022-10-09T16:16:27.770Z,11.43
2022-10-09T16:18:55.113Z,11.43
2022-10-09T16:21:28.071Z,11.33
2022-10-09T16:24:04.293Z,11.44
2022-10-09T16:26:31.038Z,11.43
2022-10-09T16:29:00.283Z,11.41
2022-10-09T16:31:35.027Z,11.23
2022-10-09T16:34:03.257Z,11.27
2022-10-09T16:36:30.165Z,11.28
2022-10-09T16:38:57.344Z,11.27
2022-10-09T16:41:24.556Z,11.17
2022-10-09T16:43:53.405Z,11.16
2022-10-09T16:46:28.416Z,11.12
2022-10-09T16:48:57.019Z,11.16
2022-10-09T16:51:35.947Z,11.07
2022-10-09T16:54:05.039Z,11.08
2022-10-09T16:56:34.575Z,11.03
2022-10-09T16:59:03.876Z,11.03
2022-10-09T17:01:30.993Z,11.04
2022-10-09T17:03:58.664Z,10.96
2022-10-09T17:06:26.059Z,10.90
2022-10-09T17:08:54.724Z,10.92
2022-10-09T17:11:22.261Z,10.78
2022-10-09T17:13:49.098Z,10.85
2022-10-09T17:16:20.562Z,10.89
2022-10-09T17:18:48.010Z,10.81
2022-10-09T17:21:16.329Z,10.90
2022-10-09T17:23:43.188Z,10.91
2022-10-09T17:26:12.658Z,10.84
2022-10-09T17:28:40.507Z,10.89
2022-10-09T17:31:09.399Z,10.81
2022-10-09T17:33:42.352Z,10.81
2022-10-09T17:36:10.083Z,10.78
2022-10-09T17:38:37.550Z,10.74
2022-10-09T17:41:05.704Z,10.60
2022-10-09T17:43:33.174Z,10.65
2022-10-09T17:46:00.983Z,10.64
2022-10-09T17:48:29.131Z,10.56
2022-10-09T17:50:58.708Z,10.55
2022-10-09T17:53:25.926Z,10.48
2022-10-09T17:55:54.593Z,10.49
2022-10-09T17:58:23.057Z,10.47
2022-10-09T18:00:50.690Z,10.39
2022-10-09T18:03:18.175Z,10.25
2022-10-09T18:05:47.030Z,10.44
2022-10-09T18:08:15.872Z,10.30
2022-10-09T18:10:42.786Z,10.36
2022-10-09T18:13:10.520Z,10.38
2022-10-09T18:15:39.103Z,10.36
2022-10-09T18:18:06.073Z,10.36
2022-10-09T18:20:37.466Z,10.42
2022-10-09T18:23:04.925Z,10.34
2022-10-09T18:25:33.912Z,10.39
2022-10-09T18:28:01.276Z,10.39
2022-10-09T18:30:28.249Z,10.31
2022-10-09T18:32:57.690Z,10.27
2022-10-09T18:35:25.815Z,10.16
2022-10-09T18:37:52.939Z,10.24
2022-10-09T18:40:19.694Z,10.28
2022-10-09T18:42:46.857Z,10.26
2022-10-09T18:45:16.326Z,10.27
2022-10-09T18:47:44.357Z,10.26
2022-10-09T18:50:12.360Z,10.12
2022-10-09T18:52:44.558Z,10.17
2022-10-09T18:55:13.132Z,10.11
2022-10-09T18:57:41.077Z,10.08
2022-10-09T19:00:09.301Z,10.20
2022-10-09T19:02:36.138Z,10.21
2022-10-09T19:05:03.419Z,10.18
2022-10-09T19:07:30.380Z,10.16
2022-10-09T19:09:57.627Z,10.17
2022-10-09T19:12:25.464Z,10.08
2022-10-09T19:14:52.545Z,10.12
2022-10-09T19:17:19.900Z,9.96
2022-10-09T19:19:47.457Z,9.96
2022-10-09T19:22:17.372Z,10.01
2022-10-09T19:24:47.151Z,9.98
2022-10-09T19:27:15.209Z,9.81
2022-10-09T19:29:42.406Z,9.83
2022-10-09T19:32:09.652Z,9.88
2022-10-09T19:34:38.255Z,9.84
2022-10-09T19:39:32.946Z,9.75
2022-10-09T19:42:03.260Z,9.71
2022-10-09T19:44:30.191Z,9.68
2022-10-09T19:46:57.339Z,9.70
2022-10-09T19:49:24.296Z,9.60
2022-10-09T19:51:59.647Z,9.64
2022-10-09T19:54:26.557Z,9.58
2022-10-09T19:56:53.422Z,9.56
2022-10-09T19:59:23.760Z,9.50
2022-10-09T20:01:55.187Z,9.43
2022-10-09T20:04:24.297Z,9.54
2022-10-09T20:06:52.729Z,9.49
2022-10-09T20:09:20.964Z,9.41
2022-10-09T20:11:48.111Z,9.41
2022-10-09T20:14:15.154Z,9.34
2022-10-09T20:16:41.958Z,9.29
2022-10-09T20:19:08.919Z,9.25
2022-10-09T20:21:38.965Z,9.21
2022-10-09T20:24:06.419Z,9.18
2022-10-09T20:26:33.312Z,9.15
2022-10-09T20:29:00.216Z,9.09
2022-10-09T20:31:27.319Z,9.02
2022-10-09T20:33:55.533Z,9.04
2022-10-09T20:36:31.493Z,9.01
2022-10-09T20:39:00.571Z,9.01
2022-10-09T20:41:28.839Z,8.96
2022-10-09T20:43:58.049Z,8.89
2022-10-09T20:46:28.747Z,8.91
2022-10-09T20:48:55.755Z,8.83
2022-10-09T20:51:23.670Z,8.77
2022-10-09T20:53:56.163Z,8.73
2022-10-09T20:56:23.911Z,8.62
2022-10-09T20:58:50.976Z,8.62
2022-10-09T21:01:17.884Z,8.56
2022-10-09T21:03:44.849Z,8.50
2022-10-09T21:06:13.876Z,8.45
2022-10-09T21:08:40.662Z,8.35
2022-10-09T21:11:12.401Z,8.50
2022-10-09T21:13:40.126Z,8.52
2022-10-09T21:16:10.513Z,8.54
2022-10-09T21:18:38.227Z,8.59
2022-10-09T21:21:11.213Z,8.64
2022-10-09T21:23:38.744Z,8.61
2022-10-09T21:26:11.963Z,8.61
2022-10-09T21:28:39.084Z,8.61
2022-10-09T21:31:10.183Z,8.55
2022-10-09T21:33:37.101Z,8.44
2022-10-09T21:36:10.201Z,8.41
2022-10-09T21:38:37.082Z,8.34
2022-10-09T21:41:04.492Z,8.26
2022-10-09T21:43:31.855Z,8.28
2022-10-09T21:45:59.128Z,8.20
2022-10-09T21:48:25.952Z,8.14
2022-10-09T21:50:52.896Z,8.07
2022-10-09T21:53:19.779Z,8.14
2022-10-09T21:55:47.070Z,8.09
2022-10-09T21:58:13.868Z,8.12
2022-10-09T22:00:40.830Z,8.12
2022-10-09T22:03:08.049Z,8.13
2022-10-09T22:05:35.284Z,8.05
2022-10-09T22:08:02.427Z,7.97
2022-10-09T22:10:29.439Z,7.97
2022-10-09T22:12:56.297Z,7.99
2022-10-09T22:15:23.449Z,8.01
2022-10-09T22:17:50.131Z,7.99
2022-10-09T22:20:16.992Z,7.95
2022-10-09T22:22:43.947Z,7.82
2022-10-09T22:25:10.905Z,7.90
2022-10-09T22:27:37.721Z,7.91
2022-10-09T22:30:04.806Z,7.93
2022-10-09T22:32:31.425Z,7.76
2022-10-09T22:34:58.155Z,7.77
2022-10-09T22:37:24.760Z,7.79
2022-10-09T22:39:51.397Z,7.81
2022-10-09T22:42:18.344Z,7.82
2022-10-09T22:44:45.118Z,7.82
2022-10-09T22:47:11.844Z,7.75
2022-10-09T22:49:38.454Z,7.83
2022-10-09T22:52:05.103Z,7.79
2022-10-09T22:54:31.778Z,7.79
2022-10-09T22:56:58.631Z,7.72
2022-10-09T22:59:25.413Z,7.75
2022-10-09T23:01:56.320Z,7.73
2022-10-09T23:04:24.000Z,7.65
2022-10-09T23:06:55.680Z,7.60
2022-10-09T23:09:24.011Z,7.62
2022-10-09T23:11:51.235Z,7.65
2022-10-09T23:14:20.266Z,7.55
2022-10-09T23:16:47.016Z,7.51
2022-10-09T23:19:13.829Z,7.49
2022-10-09T23:21:42.104Z,7.53
2022-10-09T23:24:10.785Z,7.58
2022-10-09T23:26:37.932Z,7.54
2022-10-09T23:29:11.681Z,7.50
2022-10-09T23:31:38.439Z,7.46
2022-10-09T23:34:06.625Z,7.43
2022-10-09T23:36:33.646Z,7.35
2022-10-09T23:39:01.582Z,7.21
2022-10-09T23:41:29.147Z,7.35
2022-10-09T23:43:56.204Z,7.24
2022-10-09T23:46:26.189Z,7.22
2022-10-09T23:48:53.438Z,7.20
2022-10-09T23:51:22.309Z,7.21
2022-10-09T23:53:49.025Z,7.29
2022-10-09T23:56:20.130Z,7.33
2022-10-09T23:58:47.269Z,7.25
